sensor_id;sensor_type;location;lat;lon;timestamp;temperature;humidity
69589;SHT31;56792;50.644;17.984;2023-04-06T00:02:22;-1.72;73.64
69589;SHT31;56792;50.644;17.984;2023-04-06T00:04:50;-1.75;73.76
69589;SHT31;56792;50.644;17.984;2023-04-06T00:07:18;-1.78;73.92
69589;SHT31;56792;50.644;17.984;2023-04-06T00:09:47;-1.82;74.05
69589;SHT31;56792;50.644;17.984;2023-04-06T00:12:15;-1.86;73.93
69589;SHT31;56792;50.644;17.984;2023-04-06T00:14:44;-1.87;74.01
69589;SHT31;56792;50.644;17.984;2023-04-06T00:17:12;-1.90;74.09
69589;SHT31;56792;50.644;17.984;2023-04-06T00:19:40;-1.95;74.25
69589;SHT31;56792;50.644;17.984;2023-04-06T00:22:08;-1.98;74.45
69589;SHT31;56792;50.644;17.984;2023-04-06T00:24:37;-2.03;74.33
69589;SHT31;56792;50.644;17.984;2023-04-06T00:27:05;-2.03;74.45
69589;SHT31;56792;50.644;17.984;2023-04-06T00:29:34;-2.06;74.53
69589;SHT31;56792;50.644;17.984;2023-04-06T00:32:02;-2.08;74.67
69589;SHT31;56792;50.644;17.984;2023-04-06T00:34:31;-2.09;74.54
69589;SHT31;56792;50.644;17.984;2023-04-06T00:36:59;-2.11;74.64
69589;SHT31;56792;50.644;17.984;2023-04-06T00:39:28;-2.14;74.60
69589;SHT31;56792;50.644;17.984;2023-04-06T00:41:56;-2.19;74.66
69589;SHT31;56792;50.644;17.984;2023-04-06T00:44:24;-2.22;74.80
69589;SHT31;56792;50.644;17.984;2023-04-06T00:46:53;-2.22;74.66
69589;SHT31;56792;50.644;17.984;2023-04-06T00:49:22;-2.24;74.73
69589;SHT31;56792;50.644;17.984;2023-04-06T00:51:51;-2.27;74.90
69589;SHT31;56792;50.644;17.984;2023-04-06T00:54:19;-2.29;74.94
69589;SHT31;56792;50.644;17.984;2023-04-06T00:56:48;-2.31;75.03
69589;SHT31;56792;50.644;17.984;2023-04-06T00:59:16;-2.34;75.27
69589;SHT31;56792;50.644;17.984;2023-04-06T01:01:46;-2.39;75.43
69589;SHT31;56792;50.644;17.984;2023-04-06T01:04:26;-2.40;75.65
69589;SHT31;56792;50.644;17.984;2023-04-06T01:06:55;-2.41;75.50
69589;SHT31;56792;50.644;17.984;2023-04-06T01:09:27;-2.42;75.58
69589;SHT31;56792;50.644;17.984;2023-04-06T01:11:56;-2.42;75.54
69589;SHT31;56792;50.644;17.984;2023-04-06T01:14:27;-2.42;75.48
69589;SHT31;56792;50.644;17.984;2023-04-06T01:16:59;-2.42;75.45
69589;SHT31;56792;50.644;17.984;2023-04-06T01:19:31;-2.42;75.51
69589;SHT31;56792;50.644;17.984;2023-04-06T01:21:59;-2.41;75.47
69589;SHT31;56792;50.644;17.984;2023-04-06T01:24:30;-2.38;75.55
69589;SHT31;56792;50.644;17.984;2023-04-06T01:27:11;-2.37;75.63
69589;SHT31;56792;50.644;17.984;2023-04-06T01:30:09;-2.33;75.60
69589;SHT31;56792;50.644;17.984;2023-04-06T01:32:58;-2.28;75.45
69589;SHT31;56792;50.644;17.984;2023-04-06T01:35:45;-2.24;75.36
69589;SHT31;56792;50.644;17.984;2023-04-06T01:38:16;-2.22;75.29
69589;SHT31;56792;50.644;17.984;2023-04-06T01:40:44;-2.22;75.16
69589;SHT31;56792;50.644;17.984;2023-04-06T01:43:13;-2.21;75.19
69589;SHT31;56792;50.644;17.984;2023-04-06T01:45:54;-2.19;75.25
69589;SHT31;56792;50.644;17.984;2023-04-06T01:48:24;-2.18;75.27
69589;SHT31;56792;50.644;17.984;2023-04-06T01:50:52;-2.18;75.20
69589;SHT31;56792;50.644;17.984;2023-04-06T01:53:24;-2.16;75.21
69589;SHT31;56792;50.644;17.984;2023-04-06T01:55:52;-2.15;74.92
69589;SHT31;56792;50.644;17.984;2023-04-06T01:58:33;-2.16;74.90
69589;SHT31;56792;50.644;17.984;2023-04-06T02:01:02;-2.15;74.70
69589;SHT31;56792;50.644;17.984;2023-04-06T02:03:37;-2.17;74.73
69589;SHT31;56792;50.644;17.984;2023-04-06T02:06:08;-2.18;75.02
69589;SHT31;56792;50.644;17.984;2023-04-06T02:08:38;-2.17;75.02
69589;SHT31;56792;50.644;17.984;2023-04-06T02:11:07;-2.16;74.85
69589;SHT31;56792;50.644;17.984;2023-04-06T02:13:42;-2.17;74.63
69589;SHT31;56792;50.644;17.984;2023-04-06T02:16:11;-2.19;74.49
69589;SHT31;56792;50.644;17.984;2023-04-06T02:18:39;-2.22;74.53
69589;SHT31;56792;50.644;17.984;2023-04-06T02:21:07;-2.24;74.66
69589;SHT31;56792;50.644;17.984;2023-04-06T02:23:36;-2.25;74.75
69589;SHT31;56792;50.644;17.984;2023-04-06T02:26:04;-2.25;74.78
69589;SHT31;56792;50.644;17.984;2023-04-06T02:28:33;-2.25;74.61
69589;SHT31;56792;50.644;17.984;2023-04-06T02:31:01;-2.25;74.66
69589;SHT31;56792;50.644;17.984;2023-04-06T02:33:29;-2.29;74.62
69589;SHT31;56792;50.644;17.984;2023-04-06T02:35:58;-2.34;74.63
69589;SHT31;56792;50.644;17.984;2023-04-06T02:38:26;-2.37;74.66
69589;SHT31;56792;50.644;17.984;2023-04-06T02:40:54;-2.40;74.63
69589;SHT31;56792;50.644;17.984;2023-04-06T02:43:25;-2.42;74.41
69589;SHT31;56792;50.644;17.984;2023-04-06T02:46:00;-2.45;74.44
69589;SHT31;56792;50.644;17.984;2023-04-06T02:48:29;-2.45;74.34
69589;SHT31;56792;50.644;17.984;2023-04-06T02:50:57;-2.48;74.32
69589;SHT31;56792;50.644;17.984;2023-04-06T02:53:26;-2.49;74.21
69589;SHT31;56792;50.644;17.984;2023-04-06T02:55:54;-2.51;74.07
69589;SHT31;56792;50.644;17.984;2023-04-06T02:58:24;-2.54;74.01
69589;SHT31;56792;50.644;17.984;2023-04-06T03:00:54;-2.56;73.99
69589;SHT31;56792;50.644;17.984;2023-04-06T03:03:22;-2.58;73.85
69589;SHT31;56792;50.644;17.984;2023-04-06T03:05:51;-2.60;73.81
69589;SHT31;56792;50.644;17.984;2023-04-06T03:08:24;-2.64;73.79
69589;SHT31;56792;50.644;17.984;2023-04-06T03:10:52;-2.67;73.83
69589;SHT31;56792;50.644;17.984;2023-04-06T03:13:21;-2.71;73.87
69589;SHT31;56792;50.644;17.984;2023-04-06T03:15:53;-2.73;73.81
69589;SHT31;56792;50.644;17.984;2023-04-06T03:18:21;-2.73;73.79
69589;SHT31;56792;50.644;17.984;2023-04-06T03:20:52;-2.73;73.85
69589;SHT31;56792;50.644;17.984;2023-04-06T03:23:22;-2.70;73.91
69589;SHT31;56792;50.644;17.984;2023-04-06T03:25:55;-2.67;73.99
69589;SHT31;56792;50.644;17.984;2023-04-06T03:28:23;-2.65;74.13
69589;SHT31;56792;50.644;17.984;2023-04-06T03:31:00;-2.60;74.07
69589;SHT31;56792;50.644;17.984;2023-04-06T03:33:44;-2.56;73.99
69589;SHT31;56792;50.644;17.984;2023-04-06T03:36:18;-2.54;73.90
69589;SHT31;56792;50.644;17.984;2023-04-06T03:38:46;-2.52;73.87
69589;SHT31;56792;50.644;17.984;2023-04-06T03:41:14;-2.49;73.76
69589;SHT31;56792;50.644;17.984;2023-04-06T03:43:48;-2.46;73.97
69589;SHT31;56792;50.644;17.984;2023-04-06T03:46:17;-2.41;74.20
69589;SHT31;56792;50.644;17.984;2023-04-06T03:48:48;-2.36;74.01
69589;SHT31;56792;50.644;17.984;2023-04-06T03:51:17;-2.31;73.84
69589;SHT31;56792;50.644;17.984;2023-04-06T03:53:47;-2.29;73.81
69589;SHT31;56792;50.644;17.984;2023-04-06T03:56:15;-2.26;73.71
69589;SHT31;56792;50.644;17.984;2023-04-06T03:58:43;-2.26;73.87
69589;SHT31;56792;50.644;17.984;2023-04-06T04:01:15;-2.25;73.95
69589;SHT31;56792;50.644;17.984;2023-04-06T04:03:43;-2.22;73.96
69589;SHT31;56792;50.644;17.984;2023-04-06T04:06:13;-2.18;74.01
69589;SHT31;56792;50.644;17.984;2023-04-06T04:08:42;-2.16;74.06
69589;SHT31;56792;50.644;17.984;2023-04-06T04:11:10;-2.14;74.28
69589;SHT31;56792;50.644;17.984;2023-04-06T04:13:39;-2.11;74.24
69589;SHT31;56792;50.644;17.984;2023-04-06T04:16:08;-2.09;74.09
69589;SHT31;56792;50.644;17.984;2023-04-06T04:18:36;-2.07;74.30
69589;SHT31;56792;50.644;17.984;2023-04-06T04:21:05;-2.03;74.29
69589;SHT31;56792;50.644;17.984;2023-04-06T04:23:34;-1.97;74.26
69589;SHT31;56792;50.644;17.984;2023-04-06T04:26:02;-1.92;74.18
69589;SHT31;56792;50.644;17.984;2023-04-06T04:28:31;-1.86;74.31
69589;SHT31;56792;50.644;17.984;2023-04-06T04:30:59;-1.80;74.34
69589;SHT31;56792;50.644;17.984;2023-04-06T04:33:30;-1.77;74.27
69589;SHT31;56792;50.644;17.984;2023-04-06T04:36:01;-1.75;74.26
69589;SHT31;56792;50.644;17.984;2023-04-06T04:38:50;-1.75;74.08
69589;SHT31;56792;50.644;17.984;2023-04-06T04:41:19;-1.73;73.96
69589;SHT31;56792;50.644;17.984;2023-04-06T04:43:47;-1.72;73.99
69589;SHT31;56792;50.644;17.984;2023-04-06T04:46:19;-1.72;73.85
69589;SHT31;56792;50.644;17.984;2023-04-06T04:48:48;-1.69;73.81
69589;SHT31;56792;50.644;17.984;2023-04-06T04:51:16;-1.67;73.87
69589;SHT31;56792;50.644;17.984;2023-04-06T04:54:01;-1.64;73.83
69589;SHT31;56792;50.644;17.984;2023-04-06T04:56:31;-1.60;73.70
69589;SHT31;56792;50.644;17.984;2023-04-06T04:59:21;-1.54;73.59
69589;SHT31;56792;50.644;17.984;2023-04-06T05:01:55;-1.50;73.56
69589;SHT31;56792;50.644;17.984;2023-04-06T05:04:29;-1.47;73.71
69589;SHT31;56792;50.644;17.984;2023-04-06T05:07:02;-1.42;73.59
69589;SHT31;56792;50.644;17.984;2023-04-06T05:09:33;-1.39;73.41
69589;SHT31;56792;50.644;17.984;2023-04-06T05:12:01;-1.38;73.42
69589;SHT31;56792;50.644;17.984;2023-04-06T05:14:33;-1.38;73.40
69589;SHT31;56792;50.644;17.984;2023-04-06T05:17:02;-1.39;73.57
69589;SHT31;56792;50.644;17.984;2023-04-06T05:19:31;-1.38;73.53
69589;SHT31;56792;50.644;17.984;2023-04-06T05:22:00;-1.38;73.36
69589;SHT31;56792;50.644;17.984;2023-04-06T05:24:30;-1.36;73.37
69589;SHT31;56792;50.644;17.984;2023-04-06T05:27:01;-1.34;73.39
69589;SHT31;56792;50.644;17.984;2023-04-06T05:29:30;-1.30;73.29
69589;SHT31;56792;50.644;17.984;2023-04-06T05:31:59;-1.24;73.20
69589;SHT31;56792;50.644;17.984;2023-04-06T05:34:28;-1.22;73.10
69589;SHT31;56792;50.644;17.984;2023-04-06T05:36:57;-1.18;73.12
69589;SHT31;56792;50.644;17.984;2023-04-06T05:39:26;-1.12;73.19
69589;SHT31;56792;50.644;17.984;2023-04-06T05:41:54;-1.07;73.17
69589;SHT31;56792;50.644;17.984;2023-04-06T05:44:32;-1.01;72.85
69589;SHT31;56792;50.644;17.984;2023-04-06T05:47:11;-0.92;72.39
69589;SHT31;56792;50.644;17.984;2023-04-06T05:49:39;-0.84;72.24
69589;SHT31;56792;50.644;17.984;2023-04-06T05:52:13;-0.73;72.04
69589;SHT31;56792;50.644;17.984;2023-04-06T05:54:44;-0.59;71.97
69589;SHT31;56792;50.644;17.984;2023-04-06T05:57:13;-0.44;71.90
69589;SHT31;56792;50.644;17.984;2023-04-06T05:59:43;-0.29;71.49
69589;SHT31;56792;50.644;17.984;2023-04-06T06:02:12;-0.14;71.26
69589;SHT31;56792;50.644;17.984;2023-04-06T06:04:42;0.02;71.17
69589;SHT31;56792;50.644;17.984;2023-04-06T06:07:10;0.19;70.76
69589;SHT31;56792;50.644;17.984;2023-04-06T06:09:46;0.37;70.64
69589;SHT31;56792;50.644;17.984;2023-04-06T06:12:23;0.47;70.46
69589;SHT31;56792;50.644;17.984;2023-04-06T06:14:52;0.63;70.30
69589;SHT31;56792;50.644;17.984;2023-04-06T06:17:22;0.80;69.97
69589;SHT31;56792;50.644;17.984;2023-04-06T06:19:51;0.94;69.71
69589;SHT31;56792;50.644;17.984;2023-04-06T06:22:19;1.06;69.44
69589;SHT31;56792;50.644;17.984;2023-04-06T06:24:47;1.17;69.06
69589;SHT31;56792;50.644;17.984;2023-04-06T06:27:18;1.27;69.12
69589;SHT31;56792;50.644;17.984;2023-04-06T06:29:46;1.46;69.40
69589;SHT31;56792;50.644;17.984;2023-04-06T06:32:14;1.68;69.24
69589;SHT31;56792;50.644;17.984;2023-04-06T06:34:45;1.85;68.05
69589;SHT31;56792;50.644;17.984;2023-04-06T06:37:13;2.02;68.18
69589;SHT31;56792;50.644;17.984;2023-04-06T06:39:41;2.18;67.47
69589;SHT31;56792;50.644;17.984;2023-04-06T06:42:10;2.35;66.96
69589;SHT31;56792;50.644;17.984;2023-04-06T06:45:07;2.55;66.89
69589;SHT31;56792;50.644;17.984;2023-04-06T06:47:36;2.79;66.81
69589;SHT31;56792;50.644;17.984;2023-04-06T06:50:07;3.01;66.46
69589;SHT31;56792;50.644;17.984;2023-04-06T06:52:36;3.22;66.10
69589;SHT31;56792;50.644;17.984;2023-04-06T06:55:06;3.40;64.98
69589;SHT31;56792;50.644;17.984;2023-04-06T06:57:37;3.60;64.55
69589;SHT31;56792;50.644;17.984;2023-04-06T07:00:09;3.83;64.76
69589;SHT31;56792;50.644;17.984;2023-04-06T07:02:42;4.05;64.24
69589;SHT31;56792;50.644;17.984;2023-04-06T07:05:11;4.25;63.78
69589;SHT31;56792;50.644;17.984;2023-04-06T07:07:40;4.45;62.54
69589;SHT31;56792;50.644;17.984;2023-04-06T07:10:09;4.61;61.86
69589;SHT31;56792;50.644;17.984;2023-04-06T07:12:38;4.76;61.54
69589;SHT31;56792;50.644;17.984;2023-04-06T07:15:07;4.89;61.44
69589;SHT31;56792;50.644;17.984;2023-04-06T07:17:36;5.06;61.87
69589;SHT31;56792;50.644;17.984;2023-04-06T07:20:07;5.19;60.96
69589;SHT31;56792;50.644;17.984;2023-04-06T07:22:37;5.37;60.45
69589;SHT31;56792;50.644;17.984;2023-04-06T07:25:07;5.51;59.38
69589;SHT31;56792;50.644;17.984;2023-04-06T07:27:36;5.57;58.74
69589;SHT31;56792;50.644;17.984;2023-04-06T07:30:06;5.65;58.81
69589;SHT31;56792;50.644;17.984;2023-04-06T07:32:36;5.80;58.94
69589;SHT31;56792;50.644;17.984;2023-04-06T07:35:06;6.01;58.00
69589;SHT31;56792;50.644;17.984;2023-04-06T07:37:35;6.23;57.86
69589;SHT31;56792;50.644;17.984;2023-04-06T07:40:03;6.43;57.28
69589;SHT31;56792;50.644;17.984;2023-04-06T07:42:34;6.65;56.89
69589;SHT31;56792;50.644;17.984;2023-04-06T07:45:04;6.81;55.72
69589;SHT31;56792;50.644;17.984;2023-04-06T07:47:34;6.94;55.33
69589;SHT31;56792;50.644;17.984;2023-04-06T07:50:03;7.12;54.26
69589;SHT31;56792;50.644;17.984;2023-04-06T07:52:33;7.29;54.21
69589;SHT31;56792;50.644;17.984;2023-04-06T07:55:02;7.47;53.68
69589;SHT31;56792;50.644;17.984;2023-04-06T07:57:31;7.67;53.31
69589;SHT31;56792;50.644;17.984;2023-04-06T07:59:59;7.89;52.33
69589;SHT31;56792;50.644;17.984;2023-04-06T08:02:38;8.17;51.96
69589;SHT31;56792;50.644;17.984;2023-04-06T08:05:06;8.47;50.34
69589;SHT31;56792;50.644;17.984;2023-04-06T08:07:36;8.68;48.46
69589;SHT31;56792;50.644;17.984;2023-04-06T08:10:05;8.83;48.60
69589;SHT31;56792;50.644;17.984;2023-04-06T08:12:34;9.07;48.93
69589;SHT31;56792;50.644;17.984;2023-04-06T08:15:03;9.24;48.30
69589;SHT31;56792;50.644;17.984;2023-04-06T08:17:33;9.51;48.40
69589;SHT31;56792;50.644;17.984;2023-04-06T08:20:01;9.82;48.13
69589;SHT31;56792;50.644;17.984;2023-04-06T08:22:31;10.11;46.67
69589;SHT31;56792;50.644;17.984;2023-04-06T08:24:59;10.31;45.99
69589;SHT31;56792;50.644;17.984;2023-04-06T08:27:27;10.49;46.40
69589;SHT31;56792;50.644;17.984;2023-04-06T08:29:56;10.72;46.12
69589;SHT31;56792;50.644;17.984;2023-04-06T08:32:25;10.88;45.26
69589;SHT31;56792;50.644;17.984;2023-04-06T08:34:53;10.96;44.22
69589;SHT31;56792;50.644;17.984;2023-04-06T08:37:22;11.13;43.95
69589;SHT31;56792;50.644;17.984;2023-04-06T08:39:50;11.31;43.87
69589;SHT31;56792;50.644;17.984;2023-04-06T08:42:20;11.48;43.10
69589;SHT31;56792;50.644;17.984;2023-04-06T08:44:51;11.58;43.05
69589;SHT31;56792;50.644;17.984;2023-04-06T08:47:20;11.77;42.83
69589;SHT31;56792;50.644;17.984;2023-04-06T08:49:49;11.90;41.54
69589;SHT31;56792;50.644;17.984;2023-04-06T08:52:18;12.14;41.85
69589;SHT31;56792;50.644;17.984;2023-04-06T08:54:47;12.47;41.30
69589;SHT31;56792;50.644;17.984;2023-04-06T08:57:15;12.73;40.21
69589;SHT31;56792;50.644;17.984;2023-04-06T08:59:46;12.76;39.05
69589;SHT31;56792;50.644;17.984;2023-04-06T09:02:17;12.90;39.33
69589;SHT31;56792;50.644;17.984;2023-04-06T09:04:47;13.12;38.44
69589;SHT31;56792;50.644;17.984;2023-04-06T09:07:18;13.40;39.08
69589;SHT31;56792;50.644;17.984;2023-04-06T09:09:48;13.81;38.89
69589;SHT31;56792;50.644;17.984;2023-04-06T09:12:24;14.23;38.19
69589;SHT31;56792;50.644;17.984;2023-04-06T09:14:54;14.59;37.11
69589;SHT31;56792;50.644;17.984;2023-04-06T09:17:24;14.56;36.23
69589;SHT31;56792;50.644;17.984;2023-04-06T09:19:54;15.03;35.99
69589;SHT31;56792;50.644;17.984;2023-04-06T09:22:23;16.00;34.86
69589;SHT31;56792;50.644;17.984;2023-04-06T09:24:53;17.42;34.02
69589;SHT31;56792;50.644;17.984;2023-04-06T09:27:30;17.91;32.59
69589;SHT31;56792;50.644;17.984;2023-04-06T09:30:06;18.80;31.07
69589;SHT31;56792;50.644;17.984;2023-04-06T09:32:46;19.72;30.39
69589;SHT31;56792;50.644;17.984;2023-04-06T09:35:16;21.10;29.47
69589;SHT31;56792;50.644;17.984;2023-04-06T09:37:46;22.36;28.27
69589;SHT31;56792;50.644;17.984;2023-04-06T09:40:17;23.39;27.54
69589;SHT31;56792;50.644;17.984;2023-04-06T09:42:47;23.98;26.39
69589;SHT31;56792;50.644;17.984;2023-04-06T09:45:17;24.43;26.01
69589;SHT31;56792;50.644;17.984;2023-04-06T09:47:47;24.88;25.55
69589;SHT31;56792;50.644;17.984;2023-04-06T09:50:17;24.75;24.88
69589;SHT31;56792;50.644;17.984;2023-04-06T09:52:47;25.29;24.24
69589;SHT31;56792;50.644;17.984;2023-04-06T09:55:22;25.80;23.82
69589;SHT31;56792;50.644;17.984;2023-04-06T09:57:59;26.75;23.34
69589;SHT31;56792;50.644;17.984;2023-04-06T10:00:35;27.67;22.84
69589;SHT31;56792;50.644;17.984;2023-04-06T10:03:19;28.07;21.90
69589;SHT31;56792;50.644;17.984;2023-04-06T10:06:00;28.84;21.35
69589;SHT31;56792;50.644;17.984;2023-04-06T10:08:35;28.06;20.73
69589;SHT31;56792;50.644;17.984;2023-04-06T10:11:07;27.59;21.16
69589;SHT31;56792;50.644;17.984;2023-04-06T10:13:36;28.74;20.42
69589;SHT31;56792;50.644;17.984;2023-04-06T10:16:04;29.28;19.99
69589;SHT31;56792;50.644;17.984;2023-04-06T10:18:34;29.36;19.73
69589;SHT31;56792;50.644;17.984;2023-04-06T10:21:07;29.52;19.22
69589;SHT31;56792;50.644;17.984;2023-04-06T10:23:41;30.14;19.34
69589;SHT31;56792;50.644;17.984;2023-04-06T10:26:14;29.29;18.79
69589;SHT31;56792;50.644;17.984;2023-04-06T10:28:47;29.37;18.94
69589;SHT31;56792;50.644;17.984;2023-04-06T10:31:23;29.46;18.66
69589;SHT31;56792;50.644;17.984;2023-04-06T10:33:56;28.86;18.95
69589;SHT31;56792;50.644;17.984;2023-04-06T10:36:27;26.87;19.37
69589;SHT31;56792;50.644;17.984;2023-04-06T10:39:00;25.35;20.07
69589;SHT31;56792;50.644;17.984;2023-04-06T10:41:32;24.38;20.06
69589;SHT31;56792;50.644;17.984;2023-04-06T10:44:02;23.24;20.53
69589;SHT31;56792;50.644;17.984;2023-04-06T10:46:32;24.40;21.38
69589;SHT31;56792;50.644;17.984;2023-04-06T10:49:10;24.39;21.34
69589;SHT31;56792;50.644;17.984;2023-04-06T10:51:39;25.76;20.76
69589;SHT31;56792;50.644;17.984;2023-04-06T10:54:07;27.18;20.34
69589;SHT31;56792;50.644;17.984;2023-04-06T10:56:39;27.90;19.55
69589;SHT31;56792;50.644;17.984;2023-04-06T10:59:07;29.03;18.93
69589;SHT31;56792;50.644;17.984;2023-04-06T11:01:36;29.87;17.78
69589;SHT31;56792;50.644;17.984;2023-04-06T11:04:10;29.01;18.03
69589;SHT31;56792;50.644;17.984;2023-04-06T11:06:45;28.98;18.47
69589;SHT31;56792;50.644;17.984;2023-04-06T11:09:23;30.17;18.44
69589;SHT31;56792;50.644;17.984;2023-04-06T11:11:53;30.30;17.82
69589;SHT31;56792;50.644;17.984;2023-04-06T11:14:22;30.21;17.71
69589;SHT31;56792;50.644;17.984;2023-04-06T11:16:52;30.55;17.34
69589;SHT31;56792;50.644;17.984;2023-04-06T11:19:20;31.20;17.14
69589;SHT31;56792;50.644;17.984;2023-04-06T11:21:49;31.85;16.92
69589;SHT31;56792;50.644;17.984;2023-04-06T11:24:17;32.43;16.50
69589;SHT31;56792;50.644;17.984;2023-04-06T11:26:48;32.81;15.76
69589;SHT31;56792;50.644;17.984;2023-04-06T11:29:19;32.73;15.07
69589;SHT31;56792;50.644;17.984;2023-04-06T11:31:51;32.89;15.47
69589;SHT31;56792;50.644;17.984;2023-04-06T11:34:24;33.17;15.28
69589;SHT31;56792;50.644;17.984;2023-04-06T11:36:54;33.48;15.68
69589;SHT31;56792;50.644;17.984;2023-04-06T11:39:26;33.82;15.59
69589;SHT31;56792;50.644;17.984;2023-04-06T11:41:57;33.33;15.56
69589;SHT31;56792;50.644;17.984;2023-04-06T11:44:29;32.13;15.73
69589;SHT31;56792;50.644;17.984;2023-04-06T11:47:01;32.49;15.43
69589;SHT31;56792;50.644;17.984;2023-04-06T11:49:31;32.72;14.87
69589;SHT31;56792;50.644;17.984;2023-04-06T11:52:14;32.88;15.37
69589;SHT31;56792;50.644;17.984;2023-04-06T11:54:44;33.06;15.13
69589;SHT31;56792;50.644;17.984;2023-04-06T11:57:13;33.14;15.03
69589;SHT31;56792;50.644;17.984;2023-04-06T11:59:43;32.82;15.28
69589;SHT31;56792;50.644;17.984;2023-04-06T12:02:11;31.66;15.27
69589;SHT31;56792;50.644;17.984;2023-04-06T12:04:39;31.12;15.48
69589;SHT31;56792;50.644;17.984;2023-04-06T12:07:08;30.69;15.61
69589;SHT31;56792;50.644;17.984;2023-04-06T12:09:36;30.06;15.81
69589;SHT31;56792;50.644;17.984;2023-04-06T12:12:05;29.17;15.98
69589;SHT31;56792;50.644;17.984;2023-04-06T12:14:33;27.65;16.36
69589;SHT31;56792;50.644;17.984;2023-04-06T12:17:01;26.33;17.15
69589;SHT31;56792;50.644;17.984;2023-04-06T12:19:30;25.62;17.66
69589;SHT31;56792;50.644;17.984;2023-04-06T12:21:58;25.22;17.85
69589;SHT31;56792;50.644;17.984;2023-04-06T12:24:27;25.39;18.38
69589;SHT31;56792;50.644;17.984;2023-04-06T12:26:56;25.13;18.33
69589;SHT31;56792;50.644;17.984;2023-04-06T12:29:24;24.50;19.03
69589;SHT31;56792;50.644;17.984;2023-04-06T12:31:53;23.63;19.46
69589;SHT31;56792;50.644;17.984;2023-04-06T12:34:21;22.44;19.90
69589;SHT31;56792;50.644;17.984;2023-04-06T12:36:49;21.57;20.35
69589;SHT31;56792;50.644;17.984;2023-04-06T12:39:18;20.78;20.85
69589;SHT31;56792;50.644;17.984;2023-04-06T12:41:47;20.06;21.38
69589;SHT31;56792;50.644;17.984;2023-04-06T12:44:15;19.35;21.74
69589;SHT31;56792;50.644;17.984;2023-04-06T12:46:44;18.76;22.71
69589;SHT31;56792;50.644;17.984;2023-04-06T12:49:12;18.37;22.97
69589;SHT31;56792;50.644;17.984;2023-04-06T12:51:42;18.09;23.66
69589;SHT31;56792;50.644;17.984;2023-04-06T12:54:11;17.93;23.85
69589;SHT31;56792;50.644;17.984;2023-04-06T12:56:39;17.76;24.01
69589;SHT31;56792;50.644;17.984;2023-04-06T12:59:07;17.44;24.33
69589;SHT31;56792;50.644;17.984;2023-04-06T13:01:36;17.06;24.57
69589;SHT31;56792;50.644;17.984;2023-04-06T13:04:04;16.73;25.27
69589;SHT31;56792;50.644;17.984;2023-04-06T13:06:33;16.50;25.84
69589;SHT31;56792;50.644;17.984;2023-04-06T13:09:01;16.26;25.87
69589;SHT31;56792;50.644;17.984;2023-04-06T13:11:31;15.98;26.05
69589;SHT31;56792;50.644;17.984;2023-04-06T13:13:59;15.65;26.32
69589;SHT31;56792;50.644;17.984;2023-04-06T13:16:28;15.34;26.80
69589;SHT31;56792;50.644;17.984;2023-04-06T13:18:56;15.10;27.17
69589;SHT31;56792;50.644;17.984;2023-04-06T13:21:25;14.81;27.45
69589;SHT31;56792;50.644;17.984;2023-04-06T13:23:53;14.46;27.71
69589;SHT31;56792;50.644;17.984;2023-04-06T13:26:21;14.17;28.27
69589;SHT31;56792;50.644;17.984;2023-04-06T13:28:50;13.95;28.51
69589;SHT31;56792;50.644;17.984;2023-04-06T13:31:18;13.68;28.74
69589;SHT31;56792;50.644;17.984;2023-04-06T13:33:46;13.43;29.19
69589;SHT31;56792;50.644;17.984;2023-04-06T13:36:15;13.27;29.67
69589;SHT31;56792;50.644;17.984;2023-04-06T13:38:43;13.12;30.01
69589;SHT31;56792;50.644;17.984;2023-04-06T13:41:17;12.98;30.56
69589;SHT31;56792;50.644;17.984;2023-04-06T13:43:47;12.79;30.53
69589;SHT31;56792;50.644;17.984;2023-04-06T13:46:15;12.65;30.91
69589;SHT31;56792;50.644;17.984;2023-04-06T13:48:44;12.58;31.04
69589;SHT31;56792;50.644;17.984;2023-04-06T13:51:13;12.47;30.79
69589;SHT31;56792;50.644;17.984;2023-04-06T13:53:41;12.37;31.45
69589;SHT31;56792;50.644;17.984;2023-04-06T13:56:10;12.29;31.87
69589;SHT31;56792;50.644;17.984;2023-04-06T13:58:38;12.17;32.10
69589;SHT31;56792;50.644;17.984;2023-04-06T14:01:07;12.07;32.06
69589;SHT31;56792;50.644;17.984;2023-04-06T14:03:35;11.97;32.31
69589;SHT31;56792;50.644;17.984;2023-04-06T14:06:10;11.91;32.67
69589;SHT31;56792;50.644;17.984;2023-04-06T14:08:39;11.83;32.71
69589;SHT31;56792;50.644;17.984;2023-04-06T14:11:10;11.72;32.73
69589;SHT31;56792;50.644;17.984;2023-04-06T14:13:39;11.64;32.96
69589;SHT31;56792;50.644;17.984;2023-04-06T14:16:07;11.52;32.91
69589;SHT31;56792;50.644;17.984;2023-04-06T14:18:35;11.39;33.43
69589;SHT31;56792;50.644;17.984;2023-04-06T14:21:04;11.28;33.82
69589;SHT31;56792;50.644;17.984;2023-04-06T14:23:33;11.23;34.05
69589;SHT31;56792;50.644;17.984;2023-04-06T14:26:01;11.15;34.36
69589;SHT31;56792;50.644;17.984;2023-04-06T14:28:31;11.07;34.25
69589;SHT31;56792;50.644;17.984;2023-04-06T14:31:01;11.01;34.55
69589;SHT31;56792;50.644;17.984;2023-04-06T14:33:37;10.97;34.61
69589;SHT31;56792;50.644;17.984;2023-04-06T14:36:06;10.91;34.60
69589;SHT31;56792;50.644;17.984;2023-04-06T14:38:35;10.82;34.68
69589;SHT31;56792;50.644;17.984;2023-04-06T14:41:04;10.81;34.83
69589;SHT31;56792;50.644;17.984;2023-04-06T14:43:32;10.79;34.83
69589;SHT31;56792;50.644;17.984;2023-04-06T14:46:01;10.75;34.87
69589;SHT31;56792;50.644;17.984;2023-04-06T14:48:29;10.72;34.97
69589;SHT31;56792;50.644;17.984;2023-04-06T14:50:57;10.68;35.23
69589;SHT31;56792;50.644;17.984;2023-04-06T14:53:25;10.60;35.39
69589;SHT31;56792;50.644;17.984;2023-04-06T14:55:54;10.56;35.59
69589;SHT31;56792;50.644;17.984;2023-04-06T14:58:25;10.48;35.81
69589;SHT31;56792;50.644;17.984;2023-04-06T15:00:55;10.43;35.88
69589;SHT31;56792;50.644;17.984;2023-04-06T15:03:24;10.42;36.03
69589;SHT31;56792;50.644;17.984;2023-04-06T15:05:53;10.40;35.81
69589;SHT31;56792;50.644;17.984;2023-04-06T15:08:23;10.37;35.65
69589;SHT31;56792;50.644;17.984;2023-04-06T15:10:52;10.33;35.51
69589;SHT31;56792;50.644;17.984;2023-04-06T15:13:24;10.32;35.98
69589;SHT31;56792;50.644;17.984;2023-04-06T15:15:53;10.33;36.36
69589;SHT31;56792;50.644;17.984;2023-04-06T15:18:21;10.25;35.98
69589;SHT31;56792;50.644;17.984;2023-04-06T15:20:49;10.16;35.92
69589;SHT31;56792;50.644;17.984;2023-04-06T15:23:18;10.09;36.29
69589;SHT31;56792;50.644;17.984;2023-04-06T15:25:47;10.06;36.40
69589;SHT31;56792;50.644;17.984;2023-04-06T15:28:15;9.99;36.38
69589;SHT31;56792;50.644;17.984;2023-04-06T15:30:43;9.89;36.69
69589;SHT31;56792;50.644;17.984;2023-04-06T15:33:11;9.77;36.86
69589;SHT31;56792;50.644;17.984;2023-04-06T15:35:40;9.67;37.06
69589;SHT31;56792;50.644;17.984;2023-04-06T15:38:08;9.65;37.41